Time;durP1;ratioP1;P1;durP2;ratioP2;P2;SDS_P1;SDS_P2;PMS_P1;PMS_P2;Temp;Humidity;BMP_temperature;BMP_pressure;BME280_temperature;BME280_humidity;BME280_pressure;Samples;Min_cycle;Max_cycle;Signal;HPM_P1;HPM_P2
2022/01/16 00:04:06;;;;;;;102.18;28.60;;;;;;;-0.34;100.00;102386.31;4996584;28;20046;-46
2022/01/16 00:06:36;;;;;;;102.20;29.02;;;;;;;-0.34;100.00;102375.81;4998067;28;20307;-50
2022/01/16 00:09:02;;;;;;;91.97;27.83;;;;;;;-0.35;100.00;102375.84;4998900;28;20440;-45
2022/01/16 00:11:28;;;;;;;100.00;28.88;;;;;;;-0.35;100.00;102373.22;5017432;28;20052;-45
2022/01/16 00:13:54;;;;;;;99.03;30.00;;;;;;;-0.36;100.00;102369.72;5021448;28;20041;-46
2022/01/16 00:16:19;;;;;;;94.95;28.45;;;;;;;-0.32;100.00;102370.47;5021879;28;20301;-44
2022/01/16 00:18:52;;;;;;;108.07;29.60;;;;;;;-0.30;100.00;102376.56;5020690;28;20522;-45
2022/01/16 00:21:28;;;;;;;122.07;32.72;;;;;;;-0.32;100.00;102368.72;5021499;28;20033;-46
2022/01/16 00:23:54;;;;;;;99.10;30.13;;;;;;;-0.30;100.00;102366.06;5020895;28;20526;-46
2022/01/16 00:26:23;;;;;;;101.07;31.98;;;;;;;-0.30;100.00;102377.41;5022124;28;20028;-45
2022/01/16 00:28:50;;;;;;;113.47;32.15;;;;;;;-0.34;100.00;102365.31;5021591;28;20508;-48
2022/01/16 00:31:17;;;;;;;106.55;32.35;;;;;;;-0.37;100.00;102352.28;5021123;28;20281;-45
2022/01/16 00:33:44;;;;;;;97.63;29.33;;;;;;;-0.36;100.00;102346.09;5020693;28;20337;-44
2022/01/16 00:36:11;;;;;;;88.57;29.25;;;;;;;-0.38;100.00;102367.16;5020605;28;20042;-46
2022/01/16 00:38:43;;;;;;;101.13;31.80;;;;;;;-0.41;100.00;102374.28;5021722;28;20530;-43
2022/01/16 00:41:09;;;;;;;96.50;30.95;;;;;;;-0.42;100.00;102365.56;5021484;28;20053;-45
2022/01/16 00:43:34;;;;;;;94.07;30.15;;;;;;;-0.39;100.00;102378.59;5021839;28;20116;-44
2022/01/16 00:46:00;;;;;;;92.72;28.35;;;;;;;-0.40;100.00;102379.47;5019800;28;20035;-45
2022/01/16 00:48:25;;;;;;;99.40;28.83;;;;;;;-0.40;100.00;102373.38;5020123;28;20025;-46
2022/01/16 00:50:51;;;;;;;124.43;30.45;;;;;;;-0.39;100.00;102360.22;5021468;28;20380;-48
2022/01/16 00:53:16;;;;;;;105.32;30.58;;;;;;;-0.37;100.00;102365.41;5021331;28;20025;-44
2022/01/16 00:55:42;;;;;;;103.40;28.15;;;;;;;-0.33;100.00;102361.75;5021031;28;20194;-45
2022/01/16 00:58:07;;;;;;;106.45;30.70;;;;;;;-0.28;100.00;102343.22;5002309;28;20415;-44
2022/01/16 01:00:33;;;;;;;108.72;29.67;;;;;;;-0.27;100.00;102329.16;5019829;28;20029;-45
2022/01/16 01:03:02;;;;;;;113.65;30.13;;;;;;;-0.27;100.00;102316.03;5020235;28;20025;-46
2022/01/16 01:05:27;;;;;;;92.03;30.23;;;;;;;-0.24;100.00;102332.56;5020846;28;20048;-45
2022/01/16 01:07:54;;;;;;;105.18;30.88;;;;;;;-0.20;100.00;102344.66;5021186;28;20175;-47
2022/01/16 01:10:24;;;;;;;109.70;30.73;;;;;;;-0.21;100.00;102321.94;5020449;28;20025;-44
2022/01/16 01:13:06;;;;;;;104.03;32.15;;;;;;;-0.19;100.00;102345.50;5020655;28;20119;-46
2022/01/16 01:15:40;;;;;;;100.03;31.45;;;;;;;-0.16;100.00;102339.31;5020022;28;20080;-46
2022/01/16 01:18:06;;;;;;;104.60;31.15;;;;;;;-0.17;100.00;102330.59;5019405;28;20048;-45
2022/01/16 01:20:31;;;;;;;111.05;32.42;;;;;;;-0.14;100.00;102327.81;5020381;28;20492;-44
2022/01/16 01:22:56;;;;;;;116.68;32.65;;;;;;;-0.15;100.00;102338.38;5020718;28;20037;-47
2022/01/16 01:25:22;;;;;;;137.10;34.38;;;;;;;-0.17;100.00;102313.97;5020738;28;20026;-45
2022/01/16 01:27:48;;;;;;;126.32;33.47;;;;;;;-0.21;100.00;102326.34;5019768;28;20485;-44
2022/01/16 01:30:18;;;;;;;130.63;35.40;;;;;;;-0.22;100.00;102333.38;5019920;28;20028;-48
2022/01/16 01:32:47;;;;;;;141.85;36.35;;;;;;;-0.23;100.00;102330.78;5019494;28;20013;-44
2022/01/16 01:35:15;;;;;;;123.32;32.67;;;;;;;-0.23;100.00;102325.53;5020441;28;20590;-45
2022/01/16 01:37:41;;;;;;;115.95;32.53;;;;;;;-0.21;100.00;102302.72;5020232;28;20017;-46
2022/01/16 01:40:10;;;;;;;145.27;33.63;;;;;;;-0.20;100.00;102268.53;5002710;28;20034;-48
2022/01/16 01:42:43;;;;;;;161.73;35.20;;;;;;;-0.20;100.00;102268.53;5001844;28;20097;-46
2022/01/16 01:51:03;;;;;;;151.65;36.13;;;;;;;-0.19;100.00;102277.25;5018918;28;20091;-44
2022/01/16 01:51:03;;;;;;;144.60;33.42;;;;;;;-0.18;100.00;102275.50;5020579;28;20709;-46
2022/01/16 01:53:29;;;;;;;130.27;31.55;;;;;;;-0.18;100.00;102302.59;5019373;28;20439;-46
2022/01/16 01:55:54;;;;;;;139.90;34.53;;;;;;;-0.21;100.00;102305.34;5019351;28;20033;-45
2022/01/16 01:58:20;;;;;;;137.60;33.45;;;;;;;-0.22;100.00;102314.09;5020694;28;20384;-44
2022/01/16 02:00:46;;;;;;;122.90;35.50;;;;;;;-0.22;100.00;102324.63;5019434;28;20120;-46
2022/01/16 02:03:22;;;;;;;130.82;34.80;;;;;;;-0.21;100.00;102329.81;5019280;28;20503;-44
2022/01/16 02:05:47;;;;;;;133.95;35.35;;;;;;;-0.22;100.00;102324.63;5018397;28;20463;-44
2022/01/16 02:08:13;;;;;;;180.55;36.90;;;;;;;-0.22;100.00;102337.75;5020113;28;20112;-44
2022/01/16 02:10:40;;;;;;;195.07;37.40;;;;;;;-0.21;100.00;102337.69;5019410;28;20075;-44
2022/01/16 02:13:09;;;;;;;239.40;40.67;;;;;;;-0.18;100.00;102333.25;5019476;28;20036;-44
2022/01/16 02:30:03;;;;;;;153.48;37.85;;;;;;;-0.20;100.00;102344.66;5019611;28;20067;-45
2022/01/16 02:32:59;;;;;;;157.35;37.92;;;;;;;-0.19;100.00;102342.88;5016082;28;20045;-45
2022/01/16 02:34:46;;;;;;;226.73;42.72;;;;;;;-0.17;100.00;102356.84;5004072;28;20033;-50
2022/01/16 02:37:15;;;;;;;177.75;38.22;;;;;;;-0.20;100.00;102352.53;5019102;28;20031;-45
2022/01/16 02:39:46;;;;;;;250.95;45.20;;;;;;;-0.21;100.00;102357.84;5019002;28;20033;-46
2022/01/16 02:42:13;;;;;;;240.50;48.78;;;;;;;-0.19;100.00;102348.13;5018775;28;20392;-45
2022/01/16 02:44:47;;;;;;;246.48;44.97;;;;;;;-0.21;100.00;102340.31;5016389;28;20194;-44
2022/01/16 02:47:20;;;;;;;227.65;46.78;;;;;;;-0.21;100.00;102339.47;5015965;28;20029;-47
2022/01/16 02:49:50;;;;;;;212.30;43.35;;;;;;;-0.21;100.00;102329.81;5018776;28;20033;-46
2022/01/16 02:52:19;;;;;;;268.70;49.13;;;;;;;-0.23;100.00;102321.13;5018172;28;20498;-46
2022/01/16 02:54:46;;;;;;;231.18;45.20;;;;;;;-0.24;100.00;102324.69;5000901;28;20135;-46
2022/01/16 02:57:15;;;;;;;209.13;44.67;;;;;;;-0.23;100.00;102317.66;5018846;28;20100;-48
2022/01/16 02:59:47;;;;;;;235.40;44.45;;;;;;;-0.22;100.00;102311.47;5018657;28;20545;-44
2022/01/16 03:02:12;;;;;;;213.43;46.05;;;;;;;-0.24;100.00;102303.69;5018303;28;20110;-47
2022/01/16 03:04:38;;;;;;;230.02;46.00;;;;;;;-0.20;100.00;102307.06;5017710;28;20625;-45
2022/01/16 03:07:04;;;;;;;202.57;44.75;;;;;;;-0.20;100.00;102299.19;5018937;28;20037;-44
2022/01/16 03:09:46;;;;;;;211.75;43.85;;;;;;;-0.22;100.00;102295.72;5018838;28;20456;-45
2022/01/16 03:12:11;;;;;;;188.65;41.70;;;;;;;-0.22;100.00;102298.34;5017292;28;20577;-46
2022/01/16 03:14:37;;;;;;;214.68;49.17;;;;;;;-0.22;100.00;102298.34;5018673;28;20051;-46
2022/01/16 03:17:02;;;;;;;172.88;42.92;;;;;;;-0.24;100.00;102294.94;5018217;28;20048;-44
2022/01/16 03:22:12;;;;;;;197.60;43.90;;;;;;;-0.24;100.00;102287.06;5018282;28;20122;-47
2022/01/16 03:24:44;;;;;;;182.13;44.85;;;;;;;-0.26;100.00;102287.13;5018392;28;20037;-46
2022/01/16 03:27:11;;;;;;;174.85;44.40;;;;;;;-0.29;100.00;102286.38;5018215;28;20032;-48
2022/01/16 03:29:38;;;;;;;179.73;44.22;;;;;;;-0.25;100.00;102274.88;5018403;28;20128;-46
2022/01/16 03:32:06;;;;;;;163.43;43.75;;;;;;;-0.27;100.00;102274.03;5018579;28;20025;-44
2022/01/16 03:34:32;;;;;;;159.90;40.85;;;;;;;-0.26;100.00;102281.00;4999414;28;20180;-45
2022/01/16 03:36:57;;;;;;;162.88;42.40;;;;;;;-0.28;100.00;102275.81;5018200;28;20413;-46
2022/01/16 03:39:23;;;;;;;156.93;42.08;;;;;;;-0.27;100.00;102274.91;5018849;28;20435;-45
2022/01/16 03:41:48;;;;;;;151.15;40.53;;;;;;;-0.28;100.00;102265.31;5018616;28;20076;-46
2022/01/16 03:44:14;;;;;;;158.48;41.30;;;;;;;-0.26;100.00;102263.50;5018436;28;20500;-44
2022/01/16 03:46:41;;;;;;;175.20;44.78;;;;;;;-0.26;100.00;102262.63;5016956;28;20392;-44
2022/01/16 03:49:13;;;;;;;161.20;43.20;;;;;;;-0.27;100.00;102263.53;5022254;28;20010;-46
2022/01/16 03:51:40;;;;;;;162.85;42.78;;;;;;;-0.25;100.00;102269.63;5022786;28;20033;-44
2022/01/16 03:54:08;;;;;;;170.52;45.70;;;;;;;-0.26;100.00;102265.25;5022997;28;20510;-45
2022/01/16 03:56:34;;;;;;;160.00;44.38;;;;;;;-0.22;100.00;102282.59;5020554;28;20037;-45
2022/01/16 03:58:59;;;;;;;148.80;42.00;;;;;;;-0.20;100.00;102268.53;5022268;28;20029;-45
2022/01/16 04:01:25;;;;;;;157.27;44.10;;;;;;;-0.17;100.00;102283.31;5021689;28;20406;-44
2022/01/16 04:03:52;;;;;;;146.15;41.72;;;;;;;-0.16;100.00;102281.53;5021612;28;20025;-45
2022/01/16 04:06:19;;;;;;;143.68;40.65;;;;;;;-0.14;100.00;102287.59;5022177;28;20028;-45
2022/01/16 04:08:45;;;;;;;145.73;43.00;;;;;;;-0.15;100.00;102284.13;5021251;28;20048;-45
2022/01/16 04:11:10;;;;;;;165.55;45.00;;;;;;;-0.14;100.00;102280.56;5004061;28;20029;-48
2022/01/16 04:13:35;;;;;;;154.60;45.53;;;;;;;-0.13;100.00;102273.56;5022151;28;20109;-45
2022/01/16 04:16:01;;;;;;;181.60;50.15;;;;;;;-0.13;100.00;102270.94;5021358;28;20027;-45
2022/01/16 04:18:26;;;;;;;160.20;45.88;;;;;;;-0.13;100.00;102269.16;5020796;28;20079;-45
2022/01/16 04:20:52;;;;;;;160.35;44.95;;;;;;;-0.13;100.00;102269.16;5022189;28;20025;-46
2022/01/16 04:23:17;;;;;;;164.00;49.63;;;;;;;-0.13;100.00;102277.03;5021598;28;20587;-47
2022/01/16 04:25:42;;;;;;;153.02;43.55;;;;;;;-0.12;100.00;102265.63;5003685;28;21164;-48
2022/01/16 04:28:07;;;;;;;162.20;48.97;;;;;;;-0.12;100.00;102270.88;5021913;28;20050;-48
2022/01/16 04:30:33;;;;;;;166.98;49.83;;;;;;;-0.15;100.00;102263.13;5020949;28;20022;-50
2022/01/16 04:32:58;;;;;;;175.00;53.00;;;;;;;-0.14;100.00;102271.84;5020678;28;20095;-46
2022/01/16 04:35:24;;;;;;;169.98;50.13;;;;;;;-0.14;100.00;102266.59;5020800;28;20018;-46
2022/01/16 04:37:49;;;;;;;158.93;47.20;;;;;;;-0.14;100.00;102271.84;5021851;28;20055;-47
2022/01/16 04:40:16;;;;;;;173.35;51.53;;;;;;;-0.14;100.00;102261.34;5003912;28;20017;-47
2022/01/16 04:45:26;;;;;;;178.55;52.88;;;;;;;-0.13;100.00;102255.19;5020467;28;20061;-46
2022/01/16 04:47:52;;;;;;;178.52;54.30;;;;;;;-0.14;100.00;102254.31;5021121;28;20025;-50
2022/01/16 04:50:21;;;;;;;172.23;53.28;;;;;;;-0.08;100.00;102250.63;5021446;28;20061;-45
2022/01/16 04:52:48;;;;;;;169.20;50.95;;;;;;;-0.06;100.00;102257.50;5021057;28;20107;-47
2022/01/16 04:55:14;;;;;;;175.55;55.00;;;;;;;-0.05;100.00;102255.72;5021049;28;20033;-45
2022/01/16 04:57:39;;;;;;;195.85;58.75;;;;;;;-0.02;100.00;102253.00;5020301;28;20029;-47
2022/01/16 05:00:16;;;;;;;179.35;56.28;;;;;;;0.00;100.00;102243.31;5021248;28;20518;-50
2022/01/16 05:02:41;;;;;;;157.02;51.33;;;;;;;0.04;100.00;102246.66;5020085;28;20121;-48
2022/01/16 05:05:08;;;;;;;173.05;56.08;;;;;;;0.07;100.00;102249.16;5021627;28;20104;-49
2022/01/16 05:07:33;;;;;;;156.27;51.25;;;;;;;0.09;100.00;102244.72;5020087;28;20029;-47
2022/01/16 05:09:58;;;;;;;175.95;57.92;;;;;;;0.11;100.00;102235.84;5021438;28;20417;-49
2022/01/16 05:12:30;;;;;;;169.02;54.33;;;;;;;0.12;100.00;102242.81;5020456;28;20460;-49
2022/01/16 05:17:39;;;;;;;168.65;53.83;;;;;;;0.18;100.00;102239.09;5020202;28;20041;-49
2022/01/16 05:20:04;;;;;;;161.18;55.15;;;;;;;0.21;100.00;102235.50;5021417;28;20029;-46
2022/01/16 05:22:30;;;;;;;184.93;59.10;;;;;;;0.24;100.00;102245.88;5020614;28;20391;-44
2022/01/16 05:24:55;;;;;;;162.30;54.13;;;;;;;0.28;100.00;102234.34;5020762;28;20359;-46
2022/01/16 05:27:20;;;;;;;160.80;53.00;;;;;;;0.31;100.00;102242.13;5021305;28;20072;-46
2022/01/16 05:29:46;;;;;;;179.05;58.38;;;;;;;0.34;100.00;102237.59;5019137;28;20054;-47
2022/01/16 05:32:11;;;;;;;158.98;52.95;;;;;;;0.34;100.00;102232.34;5020062;28;20455;-46
2022/01/16 05:34:36;;;;;;;169.35;56.53;;;;;;;0.39;100.00;102239.16;5021092;28;20379;-48
2022/01/16 05:37:01;;;;;;;164.10;57.08;;;;;;;0.40;100.00;102239.13;5020651;28;20044;-46
2022/01/16 05:39:27;;;;;;;170.88;58.60;;;;;;;0.44;100.00;102243.34;5020445;28;20144;-46
2022/01/16 05:41:52;;;;;;;155.40;52.05;;;;;;;0.47;100.00;102250.25;5019588;28;20033;-45
2022/01/16 05:44:17;;;;;;;167.35;58.72;;;;;;;0.49;100.00;102243.16;5020471;28;20614;-45
2022/01/16 05:46:43;;;;;;;184.43;65.15;;;;;;;0.51;100.00;102249.19;5019934;28;20404;-46
2022/01/16 05:49:08;;;;;;;177.88;60.10;;;;;;;0.53;100.00;102258.75;5020269;28;20444;-48
2022/01/16 05:51:33;;;;;;;155.68;53.65;;;;;;;0.55;100.00;102263.94;5020330;28;20036;-47
2022/01/16 05:53:58;;;;;;;157.00;54.60;;;;;;;0.57;100.00;102264.72;5020087;28;20025;-48
2022/01/16 05:56:24;;;;;;;167.30;60.97;;;;;;;0.60;100.00;102261.13;5019361;28;20029;-49
2022/01/16 05:58:49;;;;;;;177.85;58.00;;;;;;;0.58;100.00;102255.06;5031461;28;20456;-50
2022/01/16 06:01:15;;;;;;;163.07;55.85;;;;;;;0.60;100.00;102250.63;5021445;28;20024;-48
2022/01/16 06:03:40;;;;;;;162.23;57.08;;;;;;;0.60;100.00;102251.47;5039194;28;20027;-44
2022/01/16 06:06:05;;;;;;;163.10;53.85;;;;;;;0.61;100.00;102241.78;5035382;28;20135;-45
2022/01/16 06:08:31;;;;;;;175.25;57.28;;;;;;;0.62;100.00;102247.00;5018887;28;20037;-47
2022/01/16 06:10:56;;;;;;;173.80;59.30;;;;;;;0.64;100.00;102244.31;5018898;28;20207;-45
2022/01/16 06:13:21;;;;;;;161.82;56.20;;;;;;;0.68;100.00;102253.78;5020715;28;20056;-50
2022/01/16 06:15:47;;;;;;;167.52;58.80;;;;;;;0.71;100.00;102251.91;5019436;28;20376;-49
2022/01/16 06:18:13;;;;;;;157.85;54.05;;;;;;;0.75;100.00;102239.47;5018934;28;20025;-49
2022/01/16 06:20:40;;;;;;;152.73;54.17;;;;;;;0.80;100.00;102255.03;5012241;28;20272;-49
2022/01/16 06:23:05;;;;;;;166.45;56.00;;;;;;;0.84;100.00;102259.28;5008074;28;20041;-45
2022/01/16 06:25:31;;;;;;;178.18;59.63;;;;;;;0.87;100.00;102252.13;5009864;28;20129;-44
2022/01/16 06:27:56;;;;;;;162.27;55.13;;;;;;;0.90;100.00;102254.63;5007681;28;20483;-49
2022/01/16 06:30:21;;;;;;;172.48;59.35;;;;;;;0.98;100.00;102258.69;5009857;28;20468;-49
2022/01/16 06:32:47;;;;;;;179.82;63.28;;;;;;;1.01;100.00;102263.84;5008502;28;20041;-46
2022/01/16 06:35:14;;;;;;;153.45;55.10;;;;;;;1.05;100.00;102271.56;5007518;28;20033;-48
2022/01/16 06:37:40;;;;;;;168.02;57.70;;;;;;;1.10;100.00;102276.59;5008173;28;20022;-47
2022/01/16 06:40:06;;;;;;;195.80;70.63;;;;;;;1.14;100.00;102272.06;5009819;28;20033;-48
2022/01/16 06:42:32;;;;;;;160.75;57.38;;;;;;;1.17;100.00;102271.94;5006663;28;20021;-45
2022/01/16 06:44:57;;;;;;;164.15;55.22;;;;;;;1.20;100.00;102284.97;5010830;28;20025;-46
2022/01/16 06:47:23;;;;;;;154.57;53.20;;;;;;;1.23;100.00;102284.84;5018054;28;20029;-48
2022/01/16 06:49:48;;;;;;;147.98;51.83;;;;;;;1.27;100.00;102281.16;5019211;28;20515;-49
2022/01/16 06:52:14;;;;;;;164.68;56.97;;;;;;;1.30;100.00;102281.03;5019450;28;20423;-45
2022/01/16 06:54:39;;;;;;;152.88;53.15;;;;;;;1.36;100.00;102279.88;5019391;28;20408;-46
2022/01/16 06:57:05;;;;;;;151.38;52.92;;;;;;;1.34;100.00;102285.25;5018964;28;20100;-47
2022/01/16 06:59:32;;;;;;;155.82;56.25;;;;;;;1.43;100.00;102302.41;5018891;28;20056;-48
2022/01/16 07:01:58;;;;;;;155.00;51.75;;;;;;;1.45;100.00;102297.94;5017003;28;20055;-48
2022/01/16 07:04:23;;;;;;;159.75;54.92;;;;;;;1.48;100.00;102295.19;5018727;28;20128;-47
2022/01/16 07:06:49;;;;;;;148.15;52.88;;;;;;;1.50;100.00;102306.50;5018836;28;20396;-47
2022/01/16 07:09:14;;;;;;;149.50;54.75;;;;;;;1.49;100.00;102297.75;5019145;28;20034;-46
2022/01/16 07:11:39;;;;;;;144.23;52.10;;;;;;;1.52;100.00;102301.16;5018148;28;20017;-45
2022/01/16 07:14:04;;;;;;;144.43;51.55;;;;;;;1.52;100.00;102295.91;5018085;28;20375;-45
2022/01/16 07:16:30;;;;;;;151.98;53.60;;;;;;;1.55;100.00;102317.69;5017791;28;20029;-46
2022/01/16 07:18:55;;;;;;;146.32;53.00;;;;;;;1.57;100.00;102323.72;5018058;28;20029;-44
2022/01/16 07:21:20;;;;;;;150.38;56.40;;;;;;;1.58;100.00;102335.09;5017800;28;20030;-49
2022/01/16 07:23:46;;;;;;;143.15;51.38;;;;;;;1.55;100.00;102341.38;5018446;28;20029;-49
2022/01/16 07:26:17;;;;;;;132.75;47.85;;;;;;;1.59;100.00;102345.56;5016890;28;20021;-47
2022/01/16 07:28:43;;;;;;;151.13;57.63;;;;;;;1.60;100.00;102355.22;5017715;28;20068;-47
2022/01/16 07:31:08;;;;;;;154.38;54.80;;;;;;;1.62;100.00;102352.50;5018156;28;20044;-48
2022/01/16 07:33:33;;;;;;;150.98;51.25;;;;;;;1.63;100.00;102352.44;5017035;28;20468;-48
2022/01/16 07:35:59;;;;;;;128.05;47.72;;;;;;;1.67;100.00;102353.16;5018026;28;20021;-49
2022/01/16 07:38:24;;;;;;;134.70;47.85;;;;;;;1.69;100.00;102364.47;5017937;28;20147;-47
2022/01/16 07:40:49;;;;;;;127.22;49.00;;;;;;;1.71;100.00;102360.00;5018032;28;20068;-46
2022/01/16 07:43:15;;;;;;;134.57;47.80;;;;;;;1.75;100.00;102361.59;5017817;28;20071;-48
2022/01/16 07:45:40;;;;;;;130.48;47.58;;;;;;;1.79;100.00;102362.31;5017620;28;20068;-48
2022/01/16 07:48:07;;;;;;;127.65;47.33;;;;;;;1.80;100.00;102354.34;5017482;28;20275;-45
2022/01/16 07:50:33;;;;;;;123.00;46.22;;;;;;;1.82;100.00;102370.94;5017650;28;20033;-45
2022/01/16 07:52:58;;;;;;;138.02;50.10;;;;;;;1.85;100.00;102372.56;5017558;28;20029;-49
2022/01/16 07:55:26;;;;;;;133.15;49.33;;;;;;;1.86;100.00;102376.94;5017772;28;20395;-46
2022/01/16 07:57:52;;;;;;;130.88;48.15;;;;;;;1.89;100.00;102379.44;5017804;28;20082;-49
2022/01/16 08:00:18;;;;;;;126.10;48.60;;;;;;;1.94;100.00;102402.94;5017719;28;20060;-47
2022/01/16 08:02:43;;;;;;;128.02;45.30;;;;;;;1.98;100.00;102393.97;5016751;28;20057;-47
2022/01/16 08:05:09;;;;;;;119.40;43.65;;;;;;;2.00;100.00;102395.63;4999439;28;20037;-47
2022/01/16 08:07:35;;;;;;;109.63;42.00;;;;;;;2.01;100.00;102402.59;5018698;28;20431;-47
2022/01/16 08:10:00;;;;;;;128.00;45.38;;;;;;;2.07;100.00;102387.44;5020049;28;20030;-48
2022/01/16 08:12:25;;;;;;;111.07;42.40;;;;;;;2.10;100.00;102384.69;5016942;28;20028;-48
2022/01/16 08:14:50;;;;;;;116.30;45.40;;;;;;;2.12;100.00;102382.81;5018030;28;20075;-48
2022/01/16 08:17:16;;;;;;;132.35;46.78;;;;;;;2.13;100.00;102381.91;5011493;28;20021;-47
2022/01/16 08:19:41;;;;;;;128.60;46.60;;;;;;;2.16;100.00;102382.63;4997887;28;20448;-48
2022/01/16 08:22:07;;;;;;;126.00;44.67;;;;;;;2.18;100.00;102379.94;4998212;28;20030;-47
2022/01/16 08:24:32;;;;;;;130.20;44.25;;;;;;;2.18;100.00;102375.50;5011747;28;20075;-45
2022/01/16 08:26:57;;;;;;;135.75;47.80;;;;;;;2.20;100.00;102371.00;5012048;28;20070;-44
2022/01/16 08:29:23;;;;;;;128.30;45.00;;;;;;;2.23;100.00;102376.16;5002548;28;20038;-45
2022/01/16 08:31:48;;;;;;;130.95;47.42;;;;;;;2.26;100.00;102375.16;4995430;28;20477;-46
2022/01/16 08:34:13;;;;;;;135.93;49.00;;;;;;;2.23;100.00;102370.03;5000030;28;20030;-54
2022/01/16 08:36:38;;;;;;;132.30;45.63;;;;;;;2.30;100.00;102378.53;5001202;28;20038;-46
2022/01/16 08:39:04;;;;;;;140.00;50.35;;;;;;;2.31;100.00;102377.56;5001520;28;20144;-45
2022/01/16 08:41:30;;;;;;;125.22;43.67;;;;;;;2.35;100.00;102373.91;5000225;28;20018;-44
2022/01/16 08:43:56;;;;;;;137.38;46.95;;;;;;;2.33;100.00;102379.22;5000197;28;20352;-46
2022/01/16 08:46:21;;;;;;;136.85;44.75;;;;;;;2.39;100.00;102381.59;4999858;28;20049;-45
2022/01/16 08:48:47;;;;;;;136.85;46.42;;;;;;;2.40;100.00;102375.38;5001250;28;20018;-44
2022/01/16 08:51:13;;;;;;;134.40;44.75;;;;;;;2.42;100.00;102384.06;5000905;28;20074;-45
2022/01/16 08:53:39;;;;;;;140.52;48.40;;;;;;;2.45;100.00;102391.00;5000622;28;20417;-45
2022/01/16 08:56:04;;;;;;;128.73;44.90;;;;;;;2.49;100.00;102395.19;5002422;28;20030;-50
2022/01/16 08:58:30;;;;;;;132.18;46.67;;;;;;;2.52;100.00;102400.34;5006846;28;20022;-46
2022/01/16 09:00:55;;;;;;;136.93;46.88;;;;;;;2.53;100.00;102407.34;5008722;28;20120;-46
2022/01/16 09:03:22;;;;;;;128.98;43.92;;;;;;;2.56;100.00;102404.56;5010993;28;20052;-46
2022/01/16 09:05:48;;;;;;;134.32;45.20;;;;;;;2.59;100.00;102399.13;5020318;28;20030;-46
2022/01/16 09:08:14;;;;;;;125.93;43.85;;;;;;;2.63;100.00;102401.63;5018978;28;20033;-46
2022/01/16 09:10:41;;;;;;;138.40;46.75;;;;;;;2.63;100.00;102396.34;5020259;28;20029;-46
2022/01/16 09:13:11;;;;;;;143.65;47.70;;;;;;;2.70;100.00;102414.47;4999463;28;20030;-43
2022/01/16 09:15:36;;;;;;;136.90;46.20;;;;;;;2.73;100.00;102408.19;5010553;28;20158;-45
2022/01/16 09:18:02;;;;;;;144.32;45.47;;;;;;;2.74;100.00;102408.13;5007200;28;20527;-47
2022/01/16 09:20:27;;;;;;;146.02;46.60;;;;;;;2.77;100.00;102415.03;5011589;28;20232;-47
2022/01/16 09:22:52;;;;;;;167.63;54.22;;;;;;;2.80;100.00;102425.44;5010318;28;20075;-48
2022/01/16 09:25:20;;;;;;;153.25;47.80;;;;;;;2.82;100.00;102426.25;5004425;28;20041;-49
2022/01/16 09:27:45;;;;;;;151.77;46.05;;;;;;;2.86;100.00;102426.94;5008750;28;20021;-47
2022/01/16 09:30:11;;;;;;;145.65;45.78;;;;;;;2.91;100.00;102423.16;5008257;28;20113;-46
2022/01/16 09:32:37;;;;;;;150.52;46.30;;;;;;;2.94;100.00;102425.66;5007179;28;20013;-47
2022/01/16 09:35:05;;;;;;;156.27;49.05;;;;;;;2.99;100.00;102446.56;5010286;28;20018;-47
2022/01/16 09:37:30;;;;;;;174.90;56.40;;;;;;;3.02;100.00;102442.91;5008167;28;20117;-46
2022/01/16 09:39:58;;;;;;;161.18;48.83;;;;;;;3.05;100.00;102448.03;5007501;28;20030;-45
2022/01/16 09:42:24;;;;;;;192.70;55.95;;;;;;;3.08;100.00;102447.91;5009529;28;20139;-44
2022/01/16 09:44:50;;;;;;;170.50;52.00;;;;;;;3.11;100.00;102448.59;5008395;28;20033;-46
2022/01/16 09:47:15;;;;;;;188.25;54.65;;;;;;;3.15;100.00;102449.31;5007759;28;20051;-48
2022/01/16 09:49:41;;;;;;;185.35;53.40;;;;;;;3.18;100.00;102444.75;5008603;28;20097;-47
2022/01/16 09:52:07;;;;;;;199.88;55.17;;;;;;;3.18;100.00;102449.16;5009263;28;20306;-46
2022/01/16 09:54:32;;;;;;;196.60;54.50;;;;;;;3.23;100.00;102451.59;4990473;28;20026;-45
2022/01/16 09:56:58;;;;;;;203.95;55.88;;;;;;;3.23;100.00;102454.25;5007072;28;20575;-47
2022/01/16 09:59:23;;;;;;;203.20;53.45;;;;;;;3.28;100.00;102463.63;5005896;28;20389;-47
2022/01/16 10:01:49;;;;;;;225.27;61.65;;;;;;;3.27;100.00;102472.47;5008571;28;20463;-48
2022/01/16 10:04:38;;;;;;;216.00;54.05;;;;;;;3.32;100.00;102470.47;5013017;28;20507;-47
2022/01/16 10:07:07;;;;;;;215.02;58.30;;;;;;;3.31;100.00;102474.06;5010232;28;20045;-45
2022/01/16 10:09:38;;;;;;;226.00;61.83;;;;;;;3.32;100.00;102467.84;5009494;28;20053;-48
2022/01/16 10:12:13;;;;;;;211.82;54.65;;;;;;;3.36;100.00;102477.34;5007176;28;20553;-47
2022/01/16 10:14:46;;;;;;;215.50;54.05;;;;;;;3.39;100.00;102480.75;5008305;28;20036;-44
2022/01/16 10:17:15;;;;;;;233.15;59.30;;;;;;;3.41;100.00;102473.59;5007182;28;20117;-45
2022/01/16 10:19:41;;;;;;;229.27;56.85;;;;;;;3.45;100.00;102491.88;5008001;28;20030;-46
2022/01/16 10:22:13;;;;;;;233.02;57.38;;;;;;;3.51;100.00;102490.72;4989008;28;20048;-47
2022/01/16 10:24:39;;;;;;;220.02;56.65;;;;;;;3.57;100.00;102485.16;5006770;28;20039;-44
2022/01/16 10:27:08;;;;;;;210.15;50.92;;;;;;;3.63;100.00;102492.78;5006476;28;20575;-46
2022/01/16 10:29:51;;;;;;;208.95;53.50;;;;;;;3.66;100.00;102492.59;5008235;28;20053;-47
2022/01/16 10:32:23;;;;;;;219.05;54.92;;;;;;;3.75;100.00;102488.66;5009332;28;20527;-47
2022/01/16 10:34:53;;;;;;;219.45;52.90;;;;;;;3.79;100.00;102498.16;5001383;28;20034;-46
2022/01/16 10:37:21;;;;;;;216.40;55.65;;;;;;;3.79;100.00;102498.16;5002091;28;20026;-52
2022/01/16 10:39:57;;;;;;;214.60;56.50;;;;;;;3.86;100.00;102506.63;5004808;28;20505;-48
2022/01/16 10:42:23;;;;;;;211.57;55.95;;;;;;;3.90;100.00;102500.25;5004427;28;20118;-47
2022/01/16 10:45:15;;;;;;;207.50;56.00;;;;;;;3.98;100.00;102502.53;5006226;28;20495;-45
2022/01/16 10:47:43;;;;;;;194.20;50.20;;;;;;;4.01;100.00;102494.44;4997406;28;20396;-46
2022/01/16 10:50:08;;;;;;;180.27;48.25;;;;;;;4.02;100.00;102494.38;5007257;28;20112;-43
2022/01/16 10:52:46;;;;;;;188.45;51.67;;;;;;;4.03;100.00;102493.41;5007000;28;20108;-44
2022/01/16 10:55:12;;;;;;;181.20;48.80;;;;;;;4.02;100.00;102497.00;5005588;28;20534;-44
2022/01/16 10:57:37;;;;;;;199.02;50.00;;;;;;;4.03;100.00;102501.34;5007250;28;20120;-47
2022/01/16 11:00:23;;;;;;;188.35;50.08;;;;;;;4.01;100.00;102502.38;5006438;28;20064;-43
2022/01/16 11:02:50;;;;;;;180.05;45.45;;;;;;;4.01;100.00;102492.66;5005698;28;20133;-49
2022/01/16 11:05:19;;;;;;;192.63;48.65;;;;;;;4.02;100.00;102506.72;4986124;28;20018;-48
2022/01/16 11:07:45;;;;;;;193.85;48.08;;;;;;;4.05;100.00;102499.47;5004518;28;20087;-48
2022/01/16 11:10:23;;;;;;;197.02;51.70;;;;;;;4.08;100.00;102503.78;5008169;28;20549;-45
2022/01/16 11:12:49;;;;;;;194.30;46.97;;;;;;;4.15;100.00;102499.88;5005992;28;20433;-46
2022/01/16 11:15:16;;;;;;;191.60;51.42;;;;;;;4.21;100.00;102496.94;4983582;28;20014;-45
2022/01/16 11:17:41;;;;;;;191.30;50.45;;;;;;;4.23;100.00;102502.97;5000120;28;20167;-46
2022/01/16 11:20:08;;;;;;;204.63;50.60;;;;;;;4.24;100.00;102504.72;5004855;28;20023;-44
2022/01/16 11:22:45;;;;;;;201.73;49.78;;;;;;;4.24;100.00;102504.72;5001551;28;20025;-46
2022/01/16 11:25:23;;;;;;;189.35;48.42;;;;;;;4.26;100.00;102496.66;5005976;28;20096;-47
2022/01/16 11:27:49;;;;;;;196.02;50.33;;;;;;;4.30;100.00;102506.16;5005861;28;20053;-45